Time;durP1;ratioP1;P1;durP2;ratioP2;P2;SDS_P1;SDS_P2;PMS_P1;PMS_P2;Temp;Humidity;BMP_temperature;BMP_pressure;BME280_temperature;BME280_humidity;BME280_pressure;Samples;Min_cycle;Max_cycle;Signal;HPM_P1;HPM_P2
2021/09/14 00:03:12;;;;;;;11.63;8.18;;;;;;;12.95;100.00;101601.09;10505220;28;20111;-55
2021/09/14 00:08:15;;;;;;;12.27;7.85;;;;;;;12.89;100.00;101593.53;10505214;28;20059;-57
2021/09/14 00:13:17;;;;;;;14.13;8.80;;;;;;;12.80;100.00;101591.44;10504799;28;20405;-56
2021/09/14 00:18:20;;;;;;;10.02;8.07;;;;;;;12.74;100.00;101591.75;10504365;28;20401;-56
2021/09/14 00:23:22;;;;;;;14.60;9.65;;;;;;;12.70;100.00;101588.44;10504602;28;20508;-56
2021/09/14 00:28:24;;;;;;;13.77;8.00;;;;;;;12.63;100.00;101584.44;10504110;28;20061;-56
2021/09/14 00:33:27;;;;;;;14.55;8.60;;;;;;;12.59;100.00;101582.91;10504268;28;20051;-54
2021/09/14 00:38:30;;;;;;;16.65;9.00;;;;;;;12.57;100.00;101592.66;10503404;28;20408;-55
2021/09/14 00:43:32;;;;;;;13.55;8.48;;;;;;;12.54;100.00;101593.69;10503954;28;20051;-52
2021/09/14 00:48:34;;;;;;;12.85;8.73;;;;;;;12.58;100.00;101591.72;10502123;28;20489;-54
2021/09/14 00:53:37;;;;;;;15.18;9.10;;;;;;;12.61;100.00;101587.16;10503139;28;20408;-54
2021/09/14 00:58:39;;;;;;;15.85;9.55;;;;;;;12.51;100.00;101580.69;10502124;28;20405;-55
2021/09/14 01:03:41;;;;;;;14.63;10.10;;;;;;;12.43;100.00;101570.59;10503414;28;20044;-54
2021/09/14 01:08:44;;;;;;;18.02;11.45;;;;;;;12.40;100.00;101570.75;10502671;28;20078;-55
2021/09/14 01:13:46;;;;;;;21.05;12.40;;;;;;;12.34;100.00;101572.84;10501246;28;20405;-55
2021/09/14 01:18:49;;;;;;;16.73;11.82;;;;;;;12.44;100.00;101579.34;10502312;28;20052;-54
2021/09/14 01:23:52;;;;;;;17.10;12.55;;;;;;;12.22;100.00;101567.31;10502282;28;20048;-56
2021/09/14 01:28:54;;;;;;;14.43;11.00;;;;;;;12.29;100.00;101565.22;10501788;28;20060;-53
2021/09/14 01:33:57;;;;;;;15.25;10.85;;;;;;;12.32;100.00;101564.22;10501809;28;20481;-56
2021/09/14 01:38:59;;;;;;;22.05;12.77;;;;;;;12.26;100.00;101571.47;10501275;28;20048;-55
2021/09/14 01:44:01;;;;;;;17.92;11.73;;;;;;;12.25;100.00;101569.81;10501562;28;20045;-59
2021/09/14 01:49:04;;;;;;;15.63;11.45;;;;;;;12.18;100.00;101565.78;10501211;28;20060;-54
2021/09/14 01:54:06;;;;;;;14.32;11.05;;;;;;;12.19;100.00;101572.72;10501240;28;20045;-51
2021/09/14 01:59:10;;;;;;;16.23;12.25;;;;;;;12.28;100.00;101568.78;10501066;28;20048;-54
2021/09/14 02:04:18;;;;;;;19.17;13.75;;;;;;;12.20;100.00;101569.16;10500476;28;20405;-54
2021/09/14 02:41:17;;;;;;;28.38;19.05;;;;;;;12.16;100.00;101535.28;10498908;28;20045;-51
2021/09/14 03:02:10;;;;;;;26.05;19.00;;;;;;;12.34;100.00;101525.59;10498395;28;20405;-55
2021/09/14 03:07:12;;;;;;;29.58;20.27;;;;;;;12.13;100.00;101524.94;10498540;28;20049;-56
2021/09/14 03:12:14;;;;;;;27.40;19.15;;;;;;;12.18;100.00;101521.16;10498171;28;20052;-53
2021/09/14 03:17:17;;;;;;;22.35;16.58;;;;;;;12.17;100.00;101522.09;10498079;28;20416;-57
2021/09/14 03:22:19;;;;;;;37.97;22.88;;;;;;;12.18;100.00;101512.44;10497564;28;20397;-50
2021/09/14 03:27:22;;;;;;;30.25;21.40;;;;;;;12.24;100.00;101510.34;10497865;28;20484;-54
2021/09/14 03:32:24;;;;;;;27.73;20.15;;;;;;;11.97;100.00;101506.50;10497782;28;20408;-54
2021/09/14 03:37:26;;;;;;;33.83;23.40;;;;;;;11.85;100.00;101502.72;10497652;28;20374;-54
2021/09/14 03:42:29;;;;;;;29.55;20.15;;;;;;;11.89;100.00;101502.50;10497531;28;20485;-54
2021/09/14 03:47:31;;;;;;;33.53;22.35;;;;;;;11.76;100.00;101488.31;10497651;28;20052;-56
2021/09/14 03:52:33;;;;;;;29.33;19.55;;;;;;;11.81;100.00;101490.69;10497882;28;20408;-55
2021/09/14 03:57:36;;;;;;;24.85;18.92;;;;;;;11.67;100.00;101479.13;10497320;28;20508;-55
2021/09/14 04:02:50;;;;;;;34.47;21.50;;;;;;;11.68;100.00;101472.97;10497259;28;20049;-54
2021/09/14 04:13:11;;;;;;;36.65;23.65;;;;;;;12.22;100.00;101464.06;10497357;28;20048;-51
2021/09/14 04:18:13;;;;;;;28.63;21.40;;;;;;;12.07;100.00;101453.47;10496910;28;20067;-52
2021/09/14 04:23:15;;;;;;;34.65;23.55;;;;;;;11.92;100.00;101456.06;10496753;28;20053;-58
2021/09/14 04:28:18;;;;;;;31.85;22.85;;;;;;;11.98;100.00;101455.75;10496818;28;20056;-53
2021/09/14 04:33:20;;;;;;;34.33;23.55;;;;;;;11.70;100.00;101450.13;10503157;28;20041;-52
2021/09/14 04:38:22;;;;;;;32.80;21.95;;;;;;;11.77;100.00;101458.53;10504248;28;20049;-54
2021/09/14 04:43:25;;;;;;;36.90;23.90;;;;;;;11.56;100.00;101473.56;10503799;28;20488;-54
2021/09/14 04:48:27;;;;;;;25.75;19.85;;;;;;;11.47;100.00;101466.19;10503728;28;20116;-57
2021/09/14 04:53:29;;;;;;;31.25;22.75;;;;;;;11.44;100.00;101466.34;10503371;28;20477;-57
2021/09/14 04:58:35;;;;;;;35.15;23.98;;;;;;;11.48;100.00;101473.13;10502835;28;20520;-56
2021/09/14 05:03:38;;;;;;;33.88;22.23;;;;;;;11.34;100.00;101471.19;10503396;28;20045;-56
2021/09/14 05:08:40;;;;;;;36.47;22.88;;;;;;;11.27;100.00;101470.66;10502761;28;20056;-55
2021/09/14 05:13:43;;;;;;;34.70;21.42;;;;;;;11.40;100.00;101467.41;10503253;28;20041;-53
2021/09/14 05:18:48;;;;;;;37.22;22.90;;;;;;;11.37;100.00;101472.81;10502360;28;20528;-55
2021/09/14 05:23:50;;;;;;;39.53;25.55;;;;;;;11.28;100.00;101474.09;10502604;28;20052;-54
2021/09/14 05:28:52;;;;;;;31.75;22.38;;;;;;;11.42;100.00;101468.19;10502143;28;20058;-55
2021/09/14 05:33:55;;;;;;;49.00;26.45;;;;;;;11.38;100.00;101472.75;10501955;28;20072;-54
2021/09/14 05:38:57;;;;;;;33.60;21.77;;;;;;;11.56;100.00;101464.88;10501486;28;20052;-53
2021/09/14 05:43:59;;;;;;;39.22;25.17;;;;;;;11.59;100.00;101465.56;10501307;28;20055;-52
2021/09/14 05:49:02;;;;;;;35.42;22.95;;;;;;;11.74;100.00;101463.09;10500731;28;20053;-54
2021/09/14 05:54:04;;;;;;;32.72;23.00;;;;;;;11.95;100.00;101461.97;10500991;28;20400;-54
2021/09/14 05:59:06;;;;;;;34.45;24.45;;;;;;;12.35;100.00;101454.59;10501197;28;20051;-55
2021/09/14 06:04:09;;;;;;;57.85;30.73;;;;;;;12.38;100.00;101461.47;10501027;28;20048;-52
2021/09/14 06:09:11;;;;;;;42.67;27.75;;;;;;;12.64;100.00;101452.16;10500173;28;20056;-55
2021/09/14 06:14:13;;;;;;;43.33;27.80;;;;;;;12.63;100.00;101446.06;10501365;28;20059;-54
2021/09/14 06:19:17;;;;;;;42.03;28.63;;;;;;;12.65;100.00;101448.59;10499867;28;20049;-55
2021/09/14 06:24:19;;;;;;;39.60;25.98;;;;;;;13.18;100.00;101451.75;10500487;28;20044;-55
2021/09/14 06:29:21;;;;;;;45.60;29.48;;;;;;;12.92;100.00;101445.34;10499464;28;20052;-56
2021/09/14 06:34:24;;;;;;;38.10;26.40;;;;;;;13.37;100.00;101441.88;10499127;28;20044;-56
2021/09/14 06:39:26;;;;;;;37.97;25.08;;;;;;;13.26;100.00;101448.66;10498829;28;20400;-56
2021/09/14 06:44:29;;;;;;;35.38;26.42;;;;;;;13.40;100.00;101447.88;10498911;28;20044;-53
2021/09/14 06:49:31;;;;;;;48.58;29.27;;;;;;;13.63;100.00;101451.78;10498556;28;20489;-55
2021/09/14 06:54:34;;;;;;;39.30;29.10;;;;;;;13.49;100.00;101455.25;10498230;28;20048;-51
2021/09/14 06:59:36;;;;;;;44.13;29.83;;;;;;;13.43;100.00;101452.97;10498537;28;20048;-54
2021/09/14 07:04:39;;;;;;;32.85;24.75;;;;;;;13.59;100.00;101451.13;10498976;28;20091;-54
2021/09/14 07:09:41;;;;;;;32.10;25.20;;;;;;;13.83;100.00;101453.22;10497931;28;20082;-55
2021/09/14 07:14:44;;;;;;;37.63;27.45;;;;;;;13.81;100.00;101448.03;10498682;28;20040;-55
2021/09/14 07:19:46;;;;;;;32.67;25.40;;;;;;;14.11;100.00;101447.13;10497818;28;20404;-55
2021/09/14 07:24:49;;;;;;;30.60;23.60;;;;;;;14.44;100.00;101444.16;10497958;28;20480;-55
2021/09/14 07:29:51;;;;;;;31.02;23.13;;;;;;;14.84;100.00;101432.84;10497745;28;20052;-55
2021/09/14 07:34:53;;;;;;;36.22;28.00;;;;;;;14.91;100.00;101420.13;10497228;28;20048;-55
2021/09/14 07:39:56;;;;;;;30.23;24.40;;;;;;;14.90;100.00;101429.00;10497928;28;20052;-56
2021/09/14 07:44:58;;;;;;;30.65;24.17;;;;;;;15.00;100.00;101415.09;10497611;28;20468;-55
2021/09/14 07:50:03;;;;;;;28.17;22.92;;;;;;;15.78;100.00;101410.75;10497466;28;20127;-56
2021/09/14 07:55:06;;;;;;;27.52;21.95;;;;;;;16.13;100.00;101410.91;10497513;28;20040;-57
2021/09/14 08:00:09;;;;;;;29.77;22.80;;;;;;;16.71;100.00;101419.06;10497740;28;20050;-56
2021/09/14 08:05:11;;;;;;;30.42;22.63;;;;;;;16.49;100.00;101425.09;10480896;28;20054;-54
2021/09/14 08:10:14;;;;;;;37.92;23.23;;;;;;;16.22;100.00;101430.53;10505524;28;20048;-54
2021/09/14 08:15:16;;;;;;;24.05;21.45;;;;;;;16.70;99.31;101433.25;10505280;28;20049;-56
2021/09/14 08:20:18;;;;;;;24.98;21.08;;;;;;;16.95;100.00;101433.28;10504534;28;20412;-58
2021/09/14 08:25:21;;;;;;;27.38;20.05;;;;;;;17.67;95.40;101440.19;10504384;28;20370;-56
2021/09/14 08:30:23;;;;;;;23.42;18.80;;;;;;;18.61;94.81;101438.09;10504235;28;20067;-57
2021/09/14 08:35:26;;;;;;;22.95;19.58;;;;;;;18.93;91.39;101439.00;10504609;28;20050;-58
2021/09/14 08:40:28;;;;;;;26.15;19.42;;;;;;;19.73;85.79;101439.38;10503825;28;20048;-55
2021/09/14 08:45:31;;;;;;;19.50;17.42;;;;;;;19.68;88.33;101437.09;10504065;28;20071;-57
2021/09/14 08:50:34;;;;;;;20.98;17.27;;;;;;;19.54;87.32;101434.81;10503484;28;20048;-56
2021/09/14 08:55:36;;;;;;;19.38;17.38;;;;;;;19.96;82.27;101434.75;10503691;28;20080;-57
2021/09/14 09:00:41;;;;;;;18.58;16.40;;;;;;;20.96;83.43;101430.34;10503245;28;20049;-57
2021/09/14 09:05:43;;;;;;;21.77;16.67;;;;;;;20.36;78.86;101419.78;10503217;28;20079;-57
2021/09/14 09:11:08;;;;;;;15.57;14.05;;;;;;;21.44;79.41;101415.31;10502857;28;20056;-56
2021/09/14 09:16:24;;;;;;;17.75;15.95;;;;;;;21.00;82.46;101412.28;10502100;28;20055;-57
2021/09/14 09:21:34;;;;;;;20.08;16.98;;;;;;;20.16;80.62;101405.59;10504789;28;20052;-57
2021/09/14 09:26:42;;;;;;;18.77;16.77;;;;;;;20.31;84.34;101425.50;10502414;28;20051;-56
2021/09/14 09:31:47;;;;;;;17.67;15.80;;;;;;;22.12;80.25;101423.03;10502040;28;20049;-58
2021/09/14 09:36:50;;;;;;;17.45;15.70;;;;;;;21.54;75.98;101415.31;10501675;28;20586;-57
2021/09/14 09:41:55;;;;;;;16.40;14.68;;;;;;;21.11;79.52;101414.78;10502144;28;20048;-59
2021/09/14 09:47:00;;;;;;;16.33;14.82;;;;;;;22.79;71.24;101412.09;10501510;28;20051;-54
2021/09/14 09:52:03;;;;;;;18.35;16.17;;;;;;;21.49;75.90;101400.59;10501283;28;20056;-58
2021/09/14 09:57:08;;;;;;;19.38;13.90;;;;;;;23.18;73.01;101387.72;10501317;28;20044;-55
2021/09/14 10:02:23;;;;;;;15.70;14.10;;;;;;;22.77;73.59;101379.38;10500855;28;20051;-57
2021/09/14 10:07:26;;;;;;;16.17;14.38;;;;;;;22.05;73.96;101388.13;10499836;28;20051;-56
2021/09/14 10:12:36;;;;;;;20.23;15.18;;;;;;;22.74;73.06;101382.34;10499241;28;20052;-56
2021/09/14 10:17:47;;;;;;;17.38;14.00;;;;;;;22.94;74.82;101381.19;10500505;28;20396;-57
2021/09/14 10:23:07;;;;;;;18.25;13.80;;;;;;;23.58;71.59;101369.44;10499814;28;20052;-56
2021/09/14 10:28:11;;;;;;;15.85;13.90;;;;;;;23.10;71.00;101360.97;10499016;28;20051;-55
2021/09/14 10:33:30;;;;;;;17.27;13.88;;;;;;;24.61;68.53;101366.59;10499454;28;20063;-55
2021/09/14 10:38:46;;;;;;;15.00;12.93;;;;;;;24.11;68.81;101353.13;10499665;28;20060;-56
2021/09/14 10:43:59;;;;;;;21.98;13.73;;;;;;;25.45;59.08;101343.06;10499235;28;20052;-55
2021/09/14 10:49:13;;;;;;;13.85;12.45;;;;;;;23.52;63.03;101352.22;10499063;28;20048;-53
2021/09/14 10:54:21;;;;;;;13.15;11.77;;;;;;;24.54;62.43;101355.69;10498995;28;20048;-56
2021/09/14 10:59:24;;;;;;;11.88;10.27;;;;;;;24.72;61.22;101360.09;10498678;28;20045;-57
2021/09/14 11:04:27;;;;;;;13.35;11.40;;;;;;;24.74;59.34;101350.88;10498436;28;20049;-58
2021/09/14 11:09:29;;;;;;;14.48;12.25;;;;;;;24.71;60.96;101340.47;10498030;28;20492;-58
2021/09/14 11:14:35;;;;;;;11.88;10.10;;;;;;;25.45;61.02;101332.34;10497504;28;20052;-57
2021/09/14 11:19:38;;;;;;;11.88;10.27;;;;;;;26.38;56.59;101329.84;10498170;28;20055;-58
2021/09/14 11:24:40;;;;;;;15.52;10.50;;;;;;;26.44;57.10;101338.00;10498134;28;20056;-56
2021/09/14 11:29:42;;;;;;;12.80;10.20;;;;;;;25.72;58.20;101322.16;10496733;28;20079;-58
2021/09/14 11:34:47;;;;;;;14.65;11.48;;;;;;;25.01;60.21;101308.66;10496766;28;20049;-56
2021/09/14 11:39:49;;;;;;;10.88;9.82;;;;;;;25.98;60.01;101304.97;10499563;28;20044;-57
2021/09/14 11:45:03;;;;;;;10.48;9.48;;;;;;;25.95;57.60;101306.16;10506578;28;20048;-57
2021/09/14 11:50:06;;;;;;;14.35;10.57;;;;;;;25.06;59.35;101303.63;10506354;28;20067;-53
2021/09/14 11:55:09;;;;;;;10.43;9.50;;;;;;;25.09;61.93;101297.94;10505669;28;20495;-54
2021/09/14 12:00:12;;;;;;;12.27;11.07;;;;;;;25.64;58.10;101290.88;10505637;28;20048;-54
2021/09/14 12:05:21;;;;;;;11.43;10.25;;;;;;;25.16;60.55;101282.81;10505333;28;20055;-54
2021/09/14 12:10:27;;;;;;;11.07;9.35;;;;;;;27.43;55.83;101289.56;10505621;28;20048;-56
2021/09/14 12:15:31;;;;;;;14.43;12.93;;;;;;;25.47;57.98;101282.09;10505427;28;20051;-55
2021/09/14 12:20:34;;;;;;;13.15;11.85;;;;;;;25.63;57.19;101270.44;10504158;28;20424;-55
2021/09/14 12:25:36;;;;;;;10.48;9.10;;;;;;;26.06;56.50;101273.56;10504441;28;20052;-55
2021/09/14 12:30:38;;;;;;;11.73;9.40;;;;;;;25.68;56.40;101276.09;10504436;28;20055;-54
2021/09/14 12:35:41;;;;;;;14.75;10.85;;;;;;;25.40;59.46;101273.91;10504510;28;20044;-55
2021/09/14 12:40:43;;;;;;;9.57;8.70;;;;;;;25.87;58.11;101271.31;10503644;28;20485;-58
2021/09/14 12:45:46;;;;;;;10.95;9.20;;;;;;;25.67;58.05;101274.47;10503736;28;20436;-54
2021/09/14 12:50:48;;;;;;;22.30;10.23;;;;;;;25.56;61.25;101272.16;10502673;28;20416;-54
2021/09/14 12:55:50;;;;;;;18.55;10.25;;;;;;;25.67;60.34;101274.47;10503294;28;20396;-56
2021/09/14 13:01:13;;;;;;;13.55;9.07;;;;;;;25.16;64.07;101265.94;10502999;28;20488;-58
2021/09/14 13:06:16;;;;;;;14.32;8.77;;;;;;;25.24;64.00;101265.06;10503771;28;20057;-54
2021/09/14 13:11:18;;;;;;;10.23;8.82;;;;;;;24.48;63.18;101257.34;10502889;28;20048;-54
2021/09/14 13:16:20;;;;;;;11.60;8.30;;;;;;;24.46;67.42;101257.50;10502482;28;20396;-55
2021/09/14 13:21:24;;;;;;;10.68;9.70;;;;;;;23.88;68.38;101258.47;10502860;28;20060;-55
2021/09/14 13:26:26;;;;;;;8.55;7.68;;;;;;;23.63;70.41;101252.19;10501484;28;20147;-57
2021/09/14 13:31:29;;;;;;;9.77;7.80;;;;;;;23.62;71.39;101247.84;10501716;28;20515;-54
2021/09/14 13:36:31;;;;;;;8.45;7.57;;;;;;;23.77;73.54;101238.22;10501279;28;20049;-53
2021/09/14 13:41:41;;;;;;;14.98;8.75;;;;;;;22.96;74.62;101228.84;10501784;28;20074;-54
2021/09/14 13:46:43;;;;;;;11.85;8.63;;;;;;;23.04;76.41;101228.06;10501507;28;20071;-54
2021/09/14 13:51:46;;;;;;;8.98;7.35;;;;;;;23.24;78.15;101231.34;10500097;28;20067;-58
2021/09/14 13:56:48;;;;;;;27.05;9.52;;;;;;;23.04;79.29;101225.38;10500937;28;20056;-58
2021/09/14 14:01:51;;;;;;;24.35;9.88;;;;;;;22.91;82.08;101229.31;10500609;28;20489;-58
2021/09/14 14:06:53;;;;;;;20.98;8.35;;;;;;;22.71;83.09;101225.19;10500518;28;20052;-58
2021/09/14 14:11:55;;;;;;;7.55;6.82;;;;;;;22.77;83.51;101229.91;10500964;28;20057;-57
2021/09/14 14:16:58;;;;;;;16.92;10.27;;;;;;;22.03;90.14;101230.16;10500151;28;20048;-57
2021/09/14 14:22:00;;;;;;;9.60;8.38;;;;;;;22.19;88.93;101229.47;10499373;28;20057;-58
2021/09/14 14:27:02;;;;;;;8.55;7.20;;;;;;;22.34;89.84;101227.13;10499632;28;20509;-57
2021/09/14 14:32:05;;;;;;;7.68;6.90;;;;;;;21.68;95.49;101222.97;10499641;28;20051;-57
2021/09/14 14:37:08;;;;;;;7.18;6.30;;;;;;;21.56;96.46;101221.53;10499236;28;20476;-58
2021/09/14 14:42:10;;;;;;;8.82;5.13;;;;;;;21.89;93.33;101198.72;10499775;28;20101;-57
2021/09/14 14:47:13;;;;;;;7.45;6.55;;;;;;;21.64;100.00;101214.44;10497800;28;20056;-58
2021/09/14 14:52:15;;;;;;;8.18;7.13;;;;;;;21.64;100.00;101214.44;10499306;28;20051;-57
2021/09/14 14:57:18;;;;;;;9.50;7.93;;;;;;;21.63;100.00;101209.25;10498840;28;20052;-58
2021/09/14 15:02:20;;;;;;;10.25;8.10;;;;;;;21.38;100.00;101200.13;10498666;28;20048;-58
2021/09/14 15:07:22;;;;;;;12.50;8.38;;;;;;;21.25;100.00;101188.03;10498843;28;20569;-58
2021/09/14 15:12:25;;;;;;;9.05;6.95;;;;;;;21.15;100.00;101181.91;10498395;28;20055;-59
2021/09/14 15:17:27;;;;;;;9.50;8.30;;;;;;;21.43;100.00;101171.22;10498412;28;20056;-57
2021/09/14 15:22:30;;;;;;;13.02;9.35;;;;;;;21.02;100.00;101186.72;10498729;28;20060;-58
2021/09/14 15:27:33;;;;;;;10.23;9.23;;;;;;;21.09;100.00;101187.81;10497941;28;20053;-57
2021/09/14 15:32:37;;;;;;;12.52;8.88;;;;;;;20.89;100.00;101179.06;10498092;28;20083;-58
2021/09/14 15:37:39;;;;;;;14.32;10.20;;;;;;;20.66;100.00;101176.78;10496668;28;20051;-59
2021/09/14 15:42:42;;;;;;;10.70;8.88;;;;;;;20.76;100.00;101188.22;10498050;28;20051;-57
2021/09/14 15:47:44;;;;;;;15.52;11.20;;;;;;;20.49;100.00;101172.16;10497449;28;20493;-56
2021/09/14 15:52:49;;;;;;;13.98;10.45;;;;;;;20.23;100.00;101170.13;10497750;28;20386;-57
2021/09/14 15:57:51;;;;;;;14.23;10.32;;;;;;;20.64;100.00;101173.41;10497565;28;20127;-57
2021/09/14 16:02:55;;;;;;;17.50;12.00;;;;;;;20.66;100.00;101175.94;10497351;28;20048;-58
2021/09/14 16:07:57;;;;;;;17.95;12.90;;;;;;;20.61;100.00;101155.06;10497474;28;20049;-58
2021/09/14 16:12:59;;;;;;;17.50;14.13;;;;;;;20.32;100.00;101149.81;10497286;28;20052;-57
2021/09/14 16:18:02;;;;;;;14.43;11.20;;;;;;;20.18;100.00;101159.91;10496082;28;20047;-58
2021/09/14 16:23:05;;;;;;;13.32;11.57;;;;;;;20.25;100.00;101168.16;10496688;28;20107;-57
2021/09/14 16:28:07;;;;;;;15.27;13.35;;;;;;;19.97;100.00;101170.72;10500483;28;20045;-58
2021/09/14 16:33:10;;;;;;;21.50;14.32;;;;;;;19.97;100.00;101159.22;10504432;28;20507;-57
2021/09/14 16:38:12;;;;;;;15.38;12.45;;;;;;;20.12;100.00;101157.81;10504249;28;20051;-57
2021/09/14 16:43:14;;;;;;;17.67;14.48;;;;;;;19.85;100.00;101156.72;10503363;28;20053;-58
2021/09/14 16:48:17;;;;;;;22.17;17.95;;;;;;;19.81;100.00;101147.34;10503851;28;20049;-58
2021/09/14 16:53:19;;;;;;;18.17;13.38;;;;;;;19.85;100.00;101153.22;10504357;28;20059;-54
2021/09/14 16:58:21;;;;;;;18.52;16.60;;;;;;;19.73;100.00;101149.81;10503463;28;20049;-57
2021/09/14 17:03:24;;;;;;;18.48;16.63;;;;;;;20.17;100.00;101152.94;10503239;28;20045;-57
2021/09/14 17:08:26;;;;;;;22.95;16.60;;;;;;;19.99;100.00;101152.78;10502981;28;20057;-55
2021/09/14 17:13:29;;;;;;;22.70;18.75;;;;;;;20.01;100.00;101148.16;10502666;28;20059;-58
2021/09/14 17:18:31;;;;;;;20.08;17.55;;;;;;;20.07;100.00;101152.06;10502998;28;20059;-57
2021/09/14 17:23:34;;;;;;;19.95;16.98;;;;;;;19.98;100.00;101143.13;10501392;28;20071;-57
2021/09/14 17:28:37;;;;;;;27.60;22.92;;;;;;;19.64;100.00;101143.53;10502322;28;20041;-56
2021/09/14 17:33:40;;;;;;;30.15;23.23;;;;;;;19.52;100.00;101142.00;10502110;28;20048;-54
2021/09/14 17:38:42;;;;;;;22.80;20.27;;;;;;;19.67;100.00;101132.63;10501259;28;20496;-56
2021/09/14 17:43:44;;;;;;;24.02;20.80;;;;;;;19.44;100.00;101126.75;10501544;28;20518;-57
2021/09/14 17:48:49;;;;;;;21.27;19.00;;;;;;;19.42;100.00;101123.38;10501327;28;20053;-57
2021/09/14 17:53:51;;;;;;;28.02;19.13;;;;;;;19.78;100.00;101115.72;10501554;28;20059;-57
2021/09/14 17:58:53;;;;;;;25.33;21.77;;;;;;;19.40;100.00;101111.22;10500987;28;20055;-58
2021/09/14 18:03:56;;;;;;;23.50;20.98;;;;;;;19.21;100.00;101096.94;10501018;28;20052;-56
2021/09/14 18:08:58;;;;;;;28.45;23.80;;;;;;;19.15;100.00;101091.34;10500330;28;20481;-57
2021/09/14 18:14:01;;;;;;;24.55;21.05;;;;;;;19.17;100.00;101086.75;10500459;28;20127;-57
2021/09/14 18:19:03;;;;;;;26.20;22.45;;;;;;;19.18;100.00;101093.72;10500793;28;20052;-57
2021/09/14 18:24:05;;;;;;;28.73;22.30;;;;;;;19.36;100.00;101097.38;10499852;28;20064;-57
2021/09/14 18:29:08;;;;;;;25.65;20.20;;;;;;;19.31;100.00;101094.31;10498670;28;20040;-56
2021/09/14 18:34:10;;;;;;;24.33;21.73;;;;;;;19.19;100.00;101090.94;10499946;28;20048;-57
2021/09/14 18:39:12;;;;;;;25.88;21.45;;;;;;;19.09;100.00;101095.38;10499338;28;20045;-58
2021/09/14 18:44:15;;;;;;;25.00;19.73;;;;;;;19.10;100.00;101092.59;10499270;28;20052;-56
2021/09/14 18:49:18;;;;;;;26.88;21.80;;;;;;;19.23;100.00;101094.16;10498218;28;20052;-56
2021/09/14 18:54:20;;;;;;;27.10;24.23;;;;;;;19.00;100.00;101090.91;10499227;28;20082;-57
2021/09/14 18:59:23;;;;;;;34.47;25.45;;;;;;;18.99;100.00;101091.88;10498456;28;20416;-57
2021/09/14 19:04:27;;;;;;;24.65;20.50;;;;;;;19.11;100.00;101102.25;10498637;28;20052;-58
2021/09/14 19:09:30;;;;;;;35.05;26.70;;;;;;;18.86;100.00;101089.44;10498400;28;20045;-57
2021/09/14 19:14:32;;;;;;;31.95;26.05;;;;;;;18.87;100.00;101089.31;10498358;28;20054;-56
2021/09/14 19:19:35;;;;;;;32.75;27.83;;;;;;;18.85;100.00;101085.13;10498161;28;20048;-57
2021/09/14 19:24:37;;;;;;;41.28;29.70;;;;;;;18.80;100.00;101084.66;10498379;28;20059;-57
2021/09/14 19:29:39;;;;;;;26.67;23.05;;;;;;;18.93;100.00;101078.16;10498087;28;20055;-56
2021/09/14 19:34:43;;;;;;;36.85;30.30;;;;;;;18.74;100.00;101076.28;10497853;28;20052;-57
2021/09/14 19:39:45;;;;;;;32.13;25.33;;;;;;;18.84;100.00;101080.78;10497949;28;20048;-57
2021/09/14 19:44:47;;;;;;;41.03;30.25;;;;;;;18.85;100.00;101082.47;10498333;28;20052;-57
2021/09/14 19:49:50;;;;;;;36.17;28.48;;;;;;;18.56;100.00;101080.53;10497600;28;20049;-56
2021/09/14 19:54:52;;;;;;;28.17;24.98;;;;;;;18.74;100.00;101088.69;10497231;28;20586;-57
2021/09/14 19:59:54;;;;;;;33.17;29.27;;;;;;;18.88;100.00;101084.88;10497811;28;20049;-57
2021/09/14 20:04:57;;;;;;;33.97;27.08;;;;;;;18.84;100.00;101076.31;10505556;28;20049;-56
2021/09/14 20:09:59;;;;;;;31.75;27.63;;;;;;;18.82;100.00;101062.31;10505296;28;20044;-56
2021/09/14 20:15:02;;;;;;;34.33;27.73;;;;;;;18.84;100.00;101070.19;10505265;28;20063;-54
2021/09/14 20:20:05;;;;;;;28.92;22.95;;;;;;;18.62;100.00;101073.84;10504880;28;20484;-57
2021/09/14 20:25:09;;;;;;;28.80;24.35;;;;;;;18.59;100.00;101074.13;10504780;28;20056;-57
2021/09/14 20:30:12;;;;;;;35.67;29.48;;;;;;;18.60;100.00;101079.28;10504621;28;20057;-57
2021/09/14 20:35:15;;;;;;;36.55;29.38;;;;;;;18.59;100.00;101088.19;10504808;28;20055;-57
2021/09/14 20:40:18;;;;;;;35.63;30.42;;;;;;;18.52;100.00;101081.75;10503998;28;20400;-56
2021/09/14 20:45:21;;;;;;;33.00;29.17;;;;;;;18.39;100.00;101084.63;10502759;28;20508;-57
2021/09/14 20:50:24;;;;;;;33.75;27.40;;;;;;;18.42;100.00;101089.66;10503401;28;20044;-58
2021/09/14 20:55:27;;;;;;;32.88;28.08;;;;;;;18.30;100.00;101088.06;10502699;28;20131;-56
2021/09/14 21:00:31;;;;;;;29.35;23.88;;;;;;;18.35;100.00;101085.88;10503197;28;20041;-57
2021/09/14 21:05:33;;;;;;;25.52;22.00;;;;;;;18.54;100.00;101085.09;10503943;28;20052;-55
2021/09/14 21:10:35;;;;;;;34.85;27.10;;;;;;;18.62;100.00;101095.06;10503195;28;20055;-58
2021/09/14 21:15:38;;;;;;;26.45;19.90;;;;;;;19.19;100.00;101085.63;10502365;28;20401;-57
2021/09/14 21:20:41;;;;;;;30.65;23.27;;;;;;;18.85;100.00;101083.31;10502518;28;20493;-57
2021/09/14 21:25:43;;;;;;;24.45;22.00;;;;;;;18.91;100.00;101087.22;10503143;28;20052;-57
2021/09/14 21:30:46;;;;;;;22.17;19.85;;;;;;;18.68;100.00;101090.06;10500950;28;20045;-59
2021/09/14 21:35:48;;;;;;;23.30;20.10;;;;;;;18.72;100.00;101087.97;10501969;28;20055;-57
2021/09/14 21:40:50;;;;;;;26.23;23.52;;;;;;;19.03;100.00;101082.66;10502073;28;20404;-55
2021/09/14 21:45:53;;;;;;;21.67;19.40;;;;;;;18.88;100.00;101067.13;10501638;28;20053;-55
2021/09/14 21:50:55;;;;;;;24.15;19.98;;;;;;;19.05;100.00;101070.09;10500373;28;20045;-57
2021/09/14 21:55:57;;;;;;;21.88;19.67;;;;;;;18.84;100.00;101062.22;10501245;28;20054;-55
2021/09/14 22:01:00;;;;;;;23.20;20.77;;;;;;;18.57;100.00;101075.06;10500874;28;20481;-56
2021/09/14 22:06:02;;;;;;;25.17;21.40;;;;;;;18.68;100.00;101070.69;10500868;28;20499;-54
2021/09/14 22:11:05;;;;;;;19.17;17.27;;;;;;;18.67;100.00;101077.75;10500657;28;20057;-56
2021/09/14 22:16:09;;;;;;;19.40;17.27;;;;;;;18.73;100.00;101079.06;10500491;28;20049;-56
2021/09/14 22:21:11;;;;;;;22.58;19.67;;;;;;;18.48;100.00;101072.41;10500538;28;20052;-54
2021/09/14 22:26:13;;;;;;;22.13;17.90;;;;;;;18.68;100.00;101071.50;10498209;28;20053;-57
2021/09/14 22:31:16;;;;;;;21.58;16.60;;;;;;;18.87;100.00;101064.59;10499910;28;20076;-57
2021/09/14 22:36:18;;;;;;;17.35;15.63;;;;;;;18.78;100.00;101076.84;10499729;28;20074;-56
2021/09/14 22:41:20;;;;;;;17.73;15.70;;;;;;;18.79;100.00;101069.72;10499993;28;20056;-55
2021/09/14 22:46:23;;;;;;;19.65;17.38;;;;;;;18.67;100.00;101063.69;10499517;28;20052;-57
2021/09/14 22:51:25;;;;;;;19.63;17.55;;;;;;;18.57;100.00;101055.69;10498881;28;20048;-56
2021/09/14 22:56:27;;;;;;;19.02;15.95;;;;;;;18.78;100.00;101052.13;10499203;28;20048;-57
2021/09/14 23:01:30;;;;;;;20.80;18.63;;;;;;;18.60;100.00;101049.28;10498827;28;20055;-55
2021/09/14 23:06:32;;;;;;;19.63;17.60;;;;;;;18.68;100.00;101042.34;10498834;28;20099;-57
2021/09/14 23:11:34;;;;;;;22.88;17.33;;;;;;;18.42;100.00;101041.13;10498676;28;20056;-56
2021/09/14 23:16:37;;;;;;;21.80;14.73;;;;;;;18.57;100.00;101031.81;10498130;28;20048;-57
2021/09/14 23:21:39;;;;;;;20.25;16.60;;;;;;;18.59;100.00;101027.22;10498205;28;20060;-57
2021/09/14 23:26:41;;;;;;;17.55;15.52;;;;;;;18.74;100.00;101036.50;10498706;28;20044;-56